Time;durP1;ratioP1;P1;durP2;ratioP2;P2;SDS_P1;SDS_P2;PMS_P1;PMS_P2;Temp;Humidity;BMP_temperature;BMP_pressure;BME280_temperature;BME280_humidity;BME280_pressure;Samples;Min_cycle;Max_cycle;Signal;HPM_P1;HPM_P2
2023/04/01 00:00:17;;;;;;;2.30;0.40;;;9.60;80.30;;;;;;4959221;28;20042;-61
2023/04/01 00:02:43;;;;;;;1.15;0.38;;;9.60;80.10;;;;;;4956216;28;20046;-61
2023/04/01 00:05:10;;;;;;;3.63;0.43;;;9.60;80.20;;;;;;4957130;28;20031;-63
2023/04/01 00:07:36;;;;;;;1.60;0.40;;;9.60;80.40;;;;;;4957994;28;20130;-63
2023/04/01 00:10:03;;;;;;;2.75;0.40;;;9.60;80.40;;;;;;4952513;28;20035;-65
2023/04/01 00:12:29;;;;;;;1.60;0.40;;;9.60;80.80;;;;;;4956203;28;20746;-62
2023/04/01 00:14:55;;;;;;;1.48;0.35;;;9.50;80.70;;;;;;4953019;28;20046;-62
2023/04/01 00:17:21;;;;;;;1.67;0.40;;;9.50;80.70;;;;;;4953890;28;20182;-61
2023/04/01 00:19:47;;;;;;;1.80;0.47;;;9.50;81.10;;;;;;4955044;28;20047;-61
2023/04/01 00:22:12;;;;;;;2.58;0.95;;;9.50;80.90;;;;;;4954339;28;20055;-63
2023/04/01 00:24:38;;;;;;;1.60;0.35;;;9.40;81.00;;;;;;4952345;28;20027;-62
2023/04/01 00:27:04;;;;;;;1.85;0.30;;;9.40;80.80;;;;;;4956164;28;20030;-61
2023/04/01 00:29:30;;;;;;;3.55;0.40;;;9.40;80.80;;;;;;4941501;28;20053;-63
2023/04/01 00:31:57;;;;;;;1.70;0.30;;;9.40;80.80;;;;;;4955232;28;20053;-62
2023/04/01 00:34:23;;;;;;;2.28;0.40;;;9.40;80.80;;;;;;4956315;28;20075;-61
2023/04/01 00:36:49;;;;;;;2.53;0.40;;;9.40;81.00;;;;;;4954597;28;20050;-62
2023/04/01 00:39:16;;;;;;;1.40;0.20;;;9.40;80.80;;;;;;4956318;28;20043;-61
2023/04/01 00:41:41;;;;;;;2.33;0.30;;;9.40;81.60;;;;;;4953297;28;20035;-62
2023/04/01 00:44:22;;;;;;;1.95;0.40;;;9.40;80.80;;;;;;4955916;28;20164;-61
2023/04/01 00:46:48;;;;;;;1.58;0.20;;;9.40;81.20;;;;;;4956350;28;20521;-62
2023/04/01 00:49:16;;;;;;;0.80;0.20;;;9.40;80.60;;;;;;4956623;28;20046;-62
2023/04/01 00:51:44;;;;;;;1.95;0.30;;;9.30;80.60;;;;;;4957322;28;20186;-62
2023/04/01 00:54:11;;;;;;;2.70;0.32;;;9.30;81.50;;;;;;4955942;28;20036;-62
2023/04/01 00:56:41;;;;;;;0.55;0.20;;;9.30;81.40;;;;;;4957019;28;20043;-61
2023/04/01 00:59:13;;;;;;;1.38;0.30;;;9.30;80.80;;;;;;4957030;28;20446;-62
2023/04/01 01:01:39;;;;;;;0.57;0.20;;;9.30;80.80;;;;;;4963064;28;20043;-61
2023/04/01 01:04:04;;;;;;;2.42;0.40;;;9.30;81.60;;;;;;4955764;28;20063;-62
2023/04/01 01:06:38;;;;;;;1.50;0.22;;;9.30;80.80;;;;;;4954973;28;20038;-62
2023/04/01 01:09:17;;;;;;;1.85;0.40;;;9.30;80.70;;;;;;4954263;28;20039;-62
2023/04/01 01:11:46;;;;;;;0.82;0.20;;;9.30;81.00;;;;;;4957719;28;20039;-60
2023/04/01 01:14:13;;;;;;;0.70;0.22;;;9.30;81.00;;;;;;4954284;28;20066;-62
2023/04/01 01:16:53;;;;;;;1.95;0.50;;;9.30;81.80;;;;;;4954666;28;20066;-61
2023/04/01 01:19:48;;;;;;;0.52;0.20;;;9.30;81.20;;;;;;4955971;28;20030;-61
2023/04/01 01:22:55;;;;;;;1.50;0.20;;;9.30;81.00;;;;;;4956024;28;20030;-61
2023/04/01 01:25:40;;;;;;;1.38;0.28;;;9.30;81.40;;;;;;4948688;28;20530;-61
2023/04/01 01:28:24;;;;;;;;;;;9.20;81.00;;;;;;4958724;28;20090;-61
2023/04/01 01:30:56;;;;;;;1.05;0.30;;;9.20;80.90;;;;;;4956957;28;19918;-62
2023/04/01 01:33:30;;;;;;;0.38;0.10;;;9.20;80.30;;;;;;4959826;28;20118;-62
2023/04/01 01:35:57;;;;;;;0.70;0.20;;;9.20;80.10;;;;;;4958236;28;20126;-60
2023/04/01 01:38:27;;;;;;;1.05;0.20;;;9.20;80.10;;;;;;4959781;28;20046;-61
2023/04/01 01:40:54;;;;;;;1.23;0.13;;;9.10;80.50;;;;;;4959047;28;20027;-61
2023/04/01 01:43:24;;;;;;;1.15;0.17;;;9.20;80.30;;;;;;4957004;28;20035;-64
2023/04/01 01:45:54;;;;;;;0.55;0.10;;;9.10;80.30;;;;;;4956230;28;20330;-62
2023/04/01 01:48:21;;;;;;;2.30;0.20;;;9.10;80.30;;;;;;4958821;28;20039;-61
2023/04/01 01:50:49;;;;;;;0.95;0.10;;;9.10;80.50;;;;;;4960222;28;20051;-62
2023/04/01 01:53:15;;;;;;;0.45;0.10;;;9.10;80.30;;;;;;4956947;28;20070;-61
2023/04/01 01:55:43;;;;;;;0.93;0.20;;;9.10;80.40;;;;;;4958129;28;20070;-60
2023/04/01 01:58:28;;;;;;;1.23;0.20;;;9.10;80.30;;;;;;4958068;28;20035;-62
2023/04/01 02:00:58;;;;;;;0.97;0.27;;;8.90;80.30;;;;;;4956713;28;20031;-62
2023/04/01 02:03:26;;;;;;;0.63;0.10;;;9.10;80.30;;;;;;4959827;28;20058;-60
2023/04/01 02:05:55;;;;;;;1.17;0.15;;;9.00;80.10;;;;;;4960556;28;20117;-61
2023/04/01 02:08:26;;;;;;;0.00;0.00;;;9.00;80.00;;;;;;4960048;28;20105;-60
2023/04/01 02:11:06;;;;;;;0.65;0.10;;;9.00;80.10;;;;;;4962752;28;20089;-61
2023/04/01 02:13:35;;;;;;;0.90;0.10;;;9.00;80.30;;;;;;4958656;28;20043;-62
2023/04/01 02:16:07;;;;;;;0.73;0.05;;;8.90;80.00;;;;;;4955310;28;20569;-62
2023/04/01 02:18:35;;;;;;;0.52;0.03;;;9.00;80.10;;;;;;4957643;28;20038;-62
2023/04/01 02:21:02;;;;;;;0.95;0.00;;;8.90;80.10;;;;;;4957971;28;20232;-62
2023/04/01 02:23:28;;;;;;;0.25;0.10;;;8.90;80.30;;;;;;4960312;28;20062;-61
2023/04/01 02:25:54;;;;;;;0.68;0.10;;;8.90;80.10;;;;;;4957299;28;20038;-61
2023/04/01 02:28:21;;;;;;;0.77;0.10;;;8.90;80.30;;;;;;4959531;28;20072;-61
2023/04/01 02:30:49;;;;;;;0.20;0.10;;;8.90;80.30;;;;;;4956192;28;20035;-62
2023/04/01 02:33:16;;;;;;;1.20;0.20;;;8.90;80.20;;;;;;4958123;28;20043;-61
2023/04/01 02:35:42;;;;;;;0.57;0.10;;;8.80;80.00;;;;;;4957495;28;20042;-61
2023/04/01 02:38:08;;;;;;;0.90;0.10;;;8.80;80.20;;;;;;4956671;28;20458;-61
2023/04/01 02:40:48;;;;;;;0.00;0.00;;;8.80;80.30;;;;;;4958869;28;20055;-61
2023/04/01 02:43:14;;;;;;;1.75;0.17;;;8.80;80.70;;;;;;4953895;28;20046;-61
2023/04/01 02:45:39;;;;;;;0.22;0.10;;;8.80;80.60;;;;;;4958245;28;20283;-62
2023/04/01 02:48:06;;;;;;;0.20;0.00;;;8.80;80.60;;;;;;4958038;28;20070;-62
2023/04/01 02:50:31;;;;;;;1.38;0.10;;;8.80;80.90;;;;;;4958159;28;20122;-62
2023/04/01 02:52:57;;;;;;;0.93;0.10;;;8.80;81.00;;;;;;4955301;28;20053;-62
2023/04/01 02:55:22;;;;;;;0.10;0.10;;;8.70;81.20;;;;;;4958410;28;20037;-62
2023/04/01 02:57:48;;;;;;;0.43;0.20;;;8.70;81.40;;;;;;4958351;28;20402;-62
2023/04/01 03:00:14;;;;;;;0.28;0.10;;;8.70;81.50;;;;;;4957132;28;20085;-62
2023/04/01 03:02:40;;;;;;;0.38;0.00;;;8.70;81.70;;;;;;4958393;28;20031;-61
2023/04/01 03:05:06;;;;;;;0.30;0.10;;;8.70;81.70;;;;;;4958279;28;20034;-62
2023/04/01 03:07:31;;;;;;;0.52;0.10;;;8.70;81.90;;;;;;4958073;28;20039;-62
2023/04/01 03:09:57;;;;;;;1.20;0.20;;;8.70;82.00;;;;;;4956980;28;20023;-62
2023/04/01 03:12:22;;;;;;;0.85;0.10;;;8.70;82.10;;;;;;4954954;28;20042;-61
2023/04/01 03:14:48;;;;;;;0.68;0.15;;;8.70;82.50;;;;;;4956954;28;20042;-60
2023/04/01 03:17:14;;;;;;;0.30;0.10;;;8.70;82.50;;;;;;4956534;28;20066;-61
2023/04/01 03:19:39;;;;;;;0.10;0.10;;;8.70;82.50;;;;;;4959303;28;20042;-60
2023/04/01 03:22:05;;;;;;;0.10;0.00;;;8.70;82.70;;;;;;4954952;28;20043;-61
2023/04/01 03:24:30;;;;;;;0.30;0.10;;;8.70;82.80;;;;;;4957756;28;20043;-62
2023/04/01 03:26:56;;;;;;;0.63;0.10;;;8.80;82.90;;;;;;4956766;28;20070;-61
2023/04/01 03:29:21;;;;;;;0.63;0.10;;;8.80;83.00;;;;;;4956570;28;20129;-62
2023/04/01 03:31:47;;;;;;;0.73;0.38;;;8.80;83.00;;;;;;4957189;28;20418;-62
2023/04/01 03:34:13;;;;;;;0.28;0.10;;;8.80;83.10;;;;;;4955148;28;20042;-62
2023/04/01 03:36:38;;;;;;;0.65;0.10;;;8.80;83.10;;;;;;4958067;28;20395;-60
2023/04/01 03:39:04;;;;;;;0.57;0.10;;;8.80;83.20;;;;;;4957642;28;20125;-60
2023/04/01 03:41:30;;;;;;;1.23;0.20;;;8.80;83.40;;;;;;4957932;28;20098;-61
2023/04/01 03:43:56;;;;;;;1.65;0.28;;;8.80;83.30;;;;;;4955813;28;20411;-62
2023/04/01 03:46:21;;;;;;;1.02;0.10;;;8.90;83.20;;;;;;4939805;28;20027;-62
2023/04/01 03:48:47;;;;;;;2.60;0.30;;;8.80;83.10;;;;;;4953540;28;20100;-62
2023/04/01 03:51:13;;;;;;;2.30;0.25;;;8.90;83.00;;;;;;4956301;28;20530;-62
2023/04/01 03:53:39;;;;;;;0.45;0.20;;;8.90;83.10;;;;;;4957453;28;20465;-60
2023/04/01 03:56:07;;;;;;;0.57;0.25;;;8.90;82.90;;;;;;4955872;28;20460;-61
2023/04/01 03:58:32;;;;;;;0.63;0.20;;;8.90;82.70;;;;;;4955143;28;20549;-62
2023/04/01 04:00:58;;;;;;;4.30;2.50;;;8.90;82.60;;;;;;4956206;28;20046;-62
2023/04/01 04:03:24;;;;;;;12.27;7.32;;;8.80;82.40;;;;;;4956689;28;20087;-61
2023/04/01 04:05:49;;;;;;;2.60;2.05;;;8.80;82.50;;;;;;4956334;28;20043;-61
2023/04/01 04:08:15;;;;;;;1.80;1.70;;;8.80;82.30;;;;;;4957419;28;20049;-62
2023/04/01 04:10:41;;;;;;;1.35;0.82;;;8.80;82.30;;;;;;4956759;28;20569;-62
2023/04/01 04:13:07;;;;;;;1.17;0.82;;;8.80;82.40;;;;;;4938246;28;20043;-62
2023/04/01 04:15:33;;;;;;;0.63;0.50;;;8.80;82.50;;;;;;4955596;28;20118;-62
2023/04/01 04:17:58;;;;;;;1.08;0.50;;;8.80;82.40;;;;;;4957584;28;20093;-61
2023/04/01 04:20:24;;;;;;;1.80;0.40;;;8.70;82.30;;;;;;4956178;28;20035;-62
2023/04/01 04:22:49;;;;;;;1.30;0.90;;;8.70;82.20;;;;;;4956243;28;20043;-61
2023/04/01 04:25:15;;;;;;;1.55;0.77;;;8.70;82.30;;;;;;4957365;28;20058;-61
2023/04/01 04:27:41;;;;;;;1.92;1.10;;;8.70;82.40;;;;;;4958152;28;20047;-61
2023/04/01 04:30:07;;;;;;;1.52;0.88;;;8.60;82.30;;;;;;4955251;28;20518;-61
2023/04/01 04:32:33;;;;;;;3.85;1.13;;;8.60;82.40;;;;;;4956021;28;20039;-61
2023/04/01 04:34:59;;;;;;;0.90;0.57;;;8.60;82.60;;;;;;4956640;28;20043;-60
2023/04/01 04:37:25;;;;;;;1.70;0.50;;;8.60;82.80;;;;;;4955653;28;20031;-60
2023/04/01 04:39:51;;;;;;;1.92;0.47;;;8.60;82.60;;;;;;4938071;28;20140;-61
2023/04/01 04:42:16;;;;;;;1.25;0.45;;;8.60;82.90;;;;;;4954817;28;20113;-62
2023/04/01 04:44:42;;;;;;;1.15;0.50;;;8.60;83.00;;;;;;4954199;28;20129;-62
2023/04/01 04:47:08;;;;;;;1.45;0.57;;;8.60;83.00;;;;;;4955901;28;20032;-62
2023/04/01 04:49:33;;;;;;;1.30;0.63;;;8.60;83.10;;;;;;4956316;28;20539;-62
2023/04/01 04:51:59;;;;;;;1.75;0.90;;;8.60;83.20;;;;;;4955151;28;20089;-61
2023/04/01 04:54:24;;;;;;;1.40;1.05;;;8.60;83.30;;;;;;4957354;28;20038;-62
2023/04/01 04:56:54;;;;;;;1.20;0.50;;;8.60;83.30;;;;;;4955314;28;20043;-62
2023/04/01 04:59:19;;;;;;;1.58;0.40;;;8.60;83.40;;;;;;4954917;28;20039;-62
2023/04/01 05:01:45;;;;;;;1.75;0.47;;;8.60;83.30;;;;;;4952916;28;20042;-62
2023/04/01 05:04:11;;;;;;;1.75;0.35;;;8.60;83.30;;;;;;4957211;28;20533;-61
2023/04/01 05:06:36;;;;;;;1.55;0.20;;;8.60;83.30;;;;;;4955268;28;20038;-62
2023/04/01 05:09:02;;;;;;;1.63;0.50;;;8.60;83.30;;;;;;4957151;28;20086;-62
2023/04/01 05:11:28;;;;;;;1.75;0.30;;;8.70;83.30;;;;;;4953928;28;20544;-61
2023/04/01 05:13:53;;;;;;;1.20;0.30;;;8.70;83.40;;;;;;4952568;28;20046;-62
2023/04/01 05:16:20;;;;;;;2.22;0.20;;;8.70;83.50;;;;;;4956799;28;20031;-62
2023/04/01 05:18:47;;;;;;;3.83;0.38;;;8.70;83.60;;;;;;4957993;28;20041;-61
2023/04/01 05:21:13;;;;;;;0.80;0.40;;;8.70;83.60;;;;;;4955888;28;20037;-62
2023/04/01 05:23:39;;;;;;;4.43;0.70;;;8.70;83.40;;;;;;4957834;28;20517;-62
2023/04/01 05:26:06;;;;;;;3.10;0.70;;;8.70;83.60;;;;;;4957035;28;20035;-61
2023/04/01 05:28:32;;;;;;;3.83;0.57;;;8.70;83.60;;;;;;4954856;28;20124;-62
2023/04/01 05:31:00;;;;;;;1.45;0.80;;;8.70;83.50;;;;;;4955971;28;20042;-62
2023/04/01 05:33:27;;;;;;;1.77;0.55;;;8.70;83.60;;;;;;4954838;28;20099;-62
2023/04/01 05:35:53;;;;;;;2.15;0.50;;;8.70;83.60;;;;;;4957781;28;20073;-61
2023/04/01 05:38:18;;;;;;;2.20;0.50;;;8.70;83.40;;;;;;4955673;28;20110;-61
2023/04/01 05:40:44;;;;;;;1.83;0.50;;;8.70;83.50;;;;;;4957913;28;20130;-62
2023/04/01 05:43:10;;;;;;;1.13;0.40;;;8.70;83.40;;;;;;4955218;28;20042;-62
2023/04/01 05:45:35;;;;;;;1.35;0.40;;;8.80;83.30;;;;;;4958444;28;20546;-61
2023/04/01 05:48:01;;;;;;;4.43;3.35;;;8.80;83.20;;;;;;4955383;28;20564;-62
2023/04/01 05:50:26;;;;;;;5.35;2.83;;;8.80;83.10;;;;;;4956157;28;20233;-61
2023/04/01 05:52:53;;;;;;;9.93;5.53;;;8.80;83.00;;;;;;4953354;28;20529;-62
2023/04/01 05:55:18;;;;;;;7.90;5.35;;;8.80;82.70;;;;;;4955734;28;20038;-62
2023/04/01 05:57:46;;;;;;;2.10;1.20;;;8.90;82.70;;;;;;4953383;28;20418;-62
2023/04/01 06:00:12;;;;;;;1.40;0.70;;;8.90;82.60;;;;;;4952395;28;20039;-61
2023/04/01 06:02:38;;;;;;;1.02;0.40;;;8.90;82.40;;;;;;4954773;28;20042;-62
2023/04/01 06:05:23;;;;;;;2.10;0.80;;;8.90;82.10;;;;;;4955709;28;20498;-62
2023/04/01 06:07:54;;;;;;;1.17;0.30;;;8.90;82.20;;;;;;4955749;28;20031;-62
2023/04/01 06:10:21;;;;;;;0.85;0.20;;;8.90;81.90;;;;;;4954826;28;20506;-62
2023/04/01 06:12:56;;;;;;;2.65;0.20;;;8.90;81.90;;;;;;4955447;28;20109;-61
2023/04/01 06:15:33;;;;;;;1.17;0.40;;;8.90;81.90;;;;;;4955607;28;20041;-61
2023/04/01 06:18:17;;;;;;;0.80;0.20;;;8.90;81.70;;;;;;4957282;28;20759;-61
2023/04/01 06:21:09;;;;;;;1.40;0.40;;;8.90;81.50;;;;;;4957117;28;20039;-61
2023/04/01 06:23:37;;;;;;;1.08;0.55;;;8.90;81.50;;;;;;4960392;28;20526;-61
2023/04/01 06:26:06;;;;;;;0.30;0.20;;;9.00;81.40;;;;;;4956857;28;20041;-62
2023/04/01 06:28:59;;;;;;;0.80;0.40;;;8.90;81.30;;;;;;4955953;28;20115;-62
2023/04/01 06:31:34;;;;;;;0.30;0.30;;;8.90;81.30;;;;;;4956071;28;20042;-61
2023/04/01 06:34:19;;;;;;;0.80;0.20;;;8.90;81.40;;;;;;4956968;28;20050;-61
2023/04/01 06:37:18;;;;;;;1.30;0.45;;;9.00;81.50;;;;;;4958337;28;20047;-62
2023/04/01 06:40:00;;;;;;;0.40;0.40;;;9.00;81.70;;;;;;4959199;28;20031;-62
2023/04/01 06:42:55;;;;;;;0.43;0.28;;;9.00;81.40;;;;;;4959303;28;20109;-61
2023/04/01 06:45:36;;;;;;;1.33;0.30;;;9.00;81.40;;;;;;4957187;28;20573;-62
2023/04/01 06:48:18;;;;;;;1.38;0.95;;;9.10;81.60;;;;;;4959483;28;20565;-61
2023/04/01 06:50:59;;;;;;;1.75;1.65;;;9.10;81.80;;;;;;4956941;28;20069;-61
2023/04/01 06:53:31;;;;;;;1.80;1.55;;;9.10;81.70;;;;;;4958711;28;20034;-62
2023/04/01 06:56:07;;;;;;;0.75;0.40;;;9.20;81.50;;;;;;4959639;28;20113;-60
2023/04/01 06:58:53;;;;;;;2.42;1.80;;;9.20;81.70;;;;;;4958184;28;20054;-61
2023/04/01 07:01:27;;;;;;;3.20;1.88;;;9.30;82.00;;;;;;4955989;28;20032;-61
2023/04/01 07:03:58;;;;;;;1.93;1.20;;;9.30;81.70;;;;;;4955733;28;20039;-61
2023/04/01 07:06:28;;;;;;;1.60;1.10;;;9.30;81.50;;;;;;4958836;28;20039;-61
2023/04/01 07:09:00;;;;;;;2.50;0.98;;;9.40;81.70;;;;;;4959709;28;20411;-62
2023/04/01 07:11:34;;;;;;;1.90;0.88;;;9.40;81.40;;;;;;4958858;28;20138;-61
2023/04/01 07:14:06;;;;;;;2.07;0.40;;;9.50;81.50;;;;;;4959143;28;20127;-62
2023/04/01 07:16:49;;;;;;;1.02;0.90;;;9.50;81.50;;;;;;4955034;28;20525;-61
2023/04/01 07:19:44;;;;;;;0.93;0.52;;;9.60;81.70;;;;;;4960471;28;20043;-61
2023/04/01 07:22:35;;;;;;;2.03;0.30;;;9.60;81.20;;;;;;4956562;28;20510;-59
2023/04/01 07:25:10;;;;;;;0.75;0.60;;;9.70;81.30;;;;;;4956777;28;20042;-61
2023/04/01 07:27:36;;;;;;;1.25;0.60;;;9.70;80.90;;;;;;4957676;28;20035;-62
2023/04/01 07:30:04;;;;;;;0.65;0.55;;;9.80;80.70;;;;;;4957252;28;20406;-62
2023/04/01 07:32:52;;;;;;;1.05;0.95;;;9.90;80.60;;;;;;4955172;28;20027;-62
2023/04/01 07:35:45;;;;;;;1.13;0.30;;;9.90;80.50;;;;;;4955225;28;20533;-61
2023/04/01 07:38:25;;;;;;;0.47;0.30;;;10.00;80.10;;;;;;4953469;28;20035;-62
2023/04/01 07:40:57;;;;;;;1.05;0.40;;;10.10;80.00;;;;;;4954216;28;20702;-61
2023/04/01 07:43:41;;;;;;;1.95;0.43;;;10.10;79.90;;;;;;4956246;28;20039;-61
2023/04/01 07:46:16;;;;;;;0.70;0.30;;;10.20;79.60;;;;;;4931764;28;20133;-61
2023/04/01 07:49:05;;;;;;;0.98;0.60;;;10.20;79.30;;;;;;4954547;28;20051;-62
2023/04/01 07:51:55;;;;;;;0.55;0.20;;;10.30;78.70;;;;;;4953674;28;20043;-62
2023/04/01 07:54:45;;;;;;;4.22;0.50;;;10.30;78.40;;;;;;4954455;28;20055;-62
2023/04/01 07:57:36;;;;;;;1.70;1.35;;;10.30;78.40;;;;;;4953177;28;20031;-61
2023/04/01 08:00:22;;;;;;;0.85;0.60;;;10.40;78.20;;;;;;4955139;28;20543;-62
2023/04/01 08:03:17;;;;;;;2.75;1.20;;;10.40;77.70;;;;;;4955025;28;20541;-60
2023/04/01 08:06:06;;;;;;;1.67;0.73;;;10.40;77.70;;;;;;4936488;28;20463;-62
2023/04/01 08:08:46;;;;;;;0.73;0.38;;;10.40;77.50;;;;;;4955217;28;20101;-61
2023/04/01 08:11:31;;;;;;;0.40;0.20;;;10.40;77.20;;;;;;4954516;28;20145;-61
2023/04/01 08:14:04;;;;;;;0.68;0.30;;;10.40;77.50;;;;;;4954618;28;20049;-61
2023/04/01 08:16:46;;;;;;;0.40;0.30;;;10.40;77.30;;;;;;4954411;28;20027;-61
2023/04/01 08:19:39;;;;;;;0.30;0.10;;;10.40;77.00;;;;;;4954363;28;20105;-61
2023/04/01 08:22:15;;;;;;;0.22;0.10;;;10.50;77.00;;;;;;4953849;28;20035;-61
2023/04/01 08:24:46;;;;;;;1.75;0.10;;;10.40;76.90;;;;;;4953446;28;20035;-61
2023/04/01 08:27:16;;;;;;;0.40;0.00;;;10.40;77.00;;;;;;4955016;28;20030;-61
2023/04/01 08:29:49;;;;;;;0.28;0.10;;;10.40;76.70;;;;;;4953398;28;20128;-61
2023/04/01 08:32:42;;;;;;;0.68;0.20;;;10.40;76.70;;;;;;4953928;28;20046;-61
2023/04/01 08:35:13;;;;;;;1.98;0.20;;;10.50;76.50;;;;;;4946033;28;20071;-60
2023/04/01 08:37:41;;;;;;;0.88;0.30;;;10.50;76.50;;;;;;4951611;28;20049;-60
2023/04/01 08:40:32;;;;;;;0.63;0.20;;;10.50;76.60;;;;;;4954823;28;20031;-61
2023/04/01 08:42:57;;;;;;;0.75;0.13;;;10.50;76.50;;;;;;4955948;28;20459;-62
2023/04/01 08:45:32;;;;;;;0.55;0.10;;;10.50;76.60;;;;;;4955699;28;20043;-60
2023/04/01 08:48:25;;;;;;;1.13;0.30;;;10.60;76.50;;;;;;4953592;28;20094;-61
2023/04/01 08:51:16;;;;;;;0.45;0.10;;;10.60;76.60;;;;;;4953393;28;20053;-62
2023/04/01 08:53:57;;;;;;;0.68;0.10;;;10.60;76.20;;;;;;4952698;28;20174;-61
2023/04/01 08:56:47;;;;;;;1.38;0.20;;;10.60;76.30;;;;;;4953287;28;20497;-61
2023/04/01 08:59:40;;;;;;;0.90;0.20;;;10.70;76.20;;;;;;4951649;28;20100;-62
2023/04/01 09:02:43;;;;;;;1.50;0.30;;;10.70;76.10;;;;;;4953051;28;20031;-62
2023/04/01 09:05:32;;;;;;;1.60;0.13;;;10.70;75.40;;;;;;4951955;28;20043;-61
2023/04/01 09:08:11;;;;;;;0.30;0.17;;;10.70;75.00;;;;;;4954210;28;20595;-62
2023/04/01 09:10:40;;;;;;;1.00;0.88;;;10.70;75.10;;;;;;4961376;28;21280;-62
2023/04/01 09:13:14;;;;;;;5.13;3.40;;;10.60;75.00;;;;;;4953801;28;20038;-61
2023/04/01 09:15:51;;;;;;;1.23;0.70;;;10.60;75.30;;;;;;4953442;28;20042;-60
2023/04/01 09:18:31;;;;;;;1.48;1.15;;;10.60;75.30;;;;;;4957720;28;20601;-60
2023/04/01 09:21:00;;;;;;;1.15;0.70;;;10.60;75.60;;;;;;4957519;28;20384;-60
2023/04/01 09:23:50;;;;;;;0.90;0.73;;;10.60;75.30;;;;;;4958017;28;20062;-59
2023/04/01 09:26:55;;;;;;;2.63;0.85;;;10.60;75.30;;;;;;4956982;28;20535;-61
2023/04/01 09:29:32;;;;;;;0.33;0.30;;;10.60;75.10;;;;;;4942087;28;20470;-61
2023/04/01 09:32:13;;;;;;;0.73;0.73;;;10.60;75.60;;;;;;4956732;28;20047;-61
2023/04/01 09:35:16;;;;;;;1.70;1.60;;;10.60;75.10;;;;;;4950575;28;20050;-62
2023/04/01 09:38:08;;;;;;;2.58;2.30;;;10.60;74.90;;;;;;4954644;28;20574;-60
2023/04/01 09:40:58;;;;;;;2.78;2.58;;;10.60;76.00;;;;;;4934284;28;20054;-60
2023/04/01 09:43:26;;;;;;;1.00;0.88;;;10.60;75.10;;;;;;4957915;28;20042;-61
2023/04/01 09:46:09;;;;;;;1.73;1.60;;;10.60;74.90;;;;;;4956763;28;20066;-61
2023/04/01 09:48:37;;;;;;;2.38;1.73;;;10.60;74.80;;;;;;4956851;28;20406;-61
2023/04/01 09:51:21;;;;;;;7.57;4.43;;;10.60;74.90;;;;;;4957886;28;20042;-60
2023/04/01 09:54:16;;;;;;;2.67;1.25;;;10.50;74.70;;;;;;4956210;28;20039;-61
2023/04/01 09:56:47;;;;;;;3.75;2.25;;;10.60;74.70;;;;;;4955731;28;20185;-60
2023/04/01 09:59:35;;;;;;;1.10;0.90;;;10.50;74.80;;;;;;4957449;28;20030;-60
2023/04/01 10:02:35;;;;;;;0.88;0.40;;;10.60;74.90;;;;;;4959612;28;20035;-61
2023/04/01 10:05:15;;;;;;;0.90;0.65;;;10.50;74.80;;;;;;4958181;28;20035;-60
2023/04/01 10:08:18;;;;;;;0.60;0.50;;;10.50;74.70;;;;;;4961253;28;20486;-61
2023/04/01 10:11:14;;;;;;;1.17;1.00;;;10.50;74.40;;;;;;4960160;28;20062;-60
2023/04/01 10:14:13;;;;;;;1.15;1.05;;;10.50;74.60;;;;;;4960787;28;20502;-61
2023/04/01 10:17:09;;;;;;;1.70;1.52;;;10.50;74.70;;;;;;4960040;28;20047;-61
2023/04/01 10:20:02;;;;;;;0.47;0.47;;;10.50;75.70;;;;;;4962411;28;20027;-62
2023/04/01 10:22:55;;;;;;;0.40;0.40;;;10.50;74.70;;;;;;4957623;28;20131;-61
2023/04/01 10:26:05;;;;;;;0.38;0.38;;;10.50;74.80;;;;;;4956273;28;20098;-61
2023/04/01 10:28:31;;;;;;;0.40;0.40;;;10.50;74.70;;;;;;4940777;28;20450;-61
2023/04/01 10:31:13;;;;;;;0.50;0.40;;;10.60;75.00;;;;;;4962387;28;20146;-62
2023/04/01 10:33:57;;;;;;;0.43;0.40;;;10.60;75.10;;;;;;4961543;28;20053;-62
2023/04/01 10:36:54;;;;;;;0.63;0.20;;;10.60;75.40;;;;;;4961961;28;20522;-62
2023/04/01 10:39:20;;;;;;;1.27;0.22;;;10.60;75.40;;;;;;4961108;28;20514;-62
2023/04/01 10:42:17;;;;;;;0.85;0.20;;;10.60;75.30;;;;;;4962817;28;20046;-61
2023/04/01 10:45:25;;;;;;;0.20;0.13;;;10.70;75.50;;;;;;4960928;28;20035;-61
2023/04/01 10:47:53;;;;;;;0.63;0.10;;;10.70;75.30;;;;;;4960256;28;20364;-62
2023/04/01 10:50:19;;;;;;;0.00;0.00;;;10.70;75.40;;;;;;4962940;28;20387;-61
2023/04/01 10:53:03;;;;;;;0.10;0.10;;;10.70;75.30;;;;;;4956972;28;20078;-61
2023/04/01 10:56:13;;;;;;;0.10;0.10;;;10.80;76.20;;;;;;4960750;28;20035;-60
2023/04/01 10:59:01;;;;;;;0.35;0.17;;;10.80;77.30;;;;;;4940445;28;20039;-61
2023/04/01 11:01:38;;;;;;;0.82;0.20;;;10.80;77.10;;;;;;4957114;28;20061;-61
2023/04/01 11:04:41;;;;;;;0.10;0.10;;;10.80;76.90;;;;;;4960412;28;20027;-60
2023/04/01 11:07:32;;;;;;;0.32;0.20;;;10.80;77.00;;;;;;4958744;28;20427;-61
2023/04/01 11:10:16;;;;;;;0.25;0.10;;;10.90;77.00;;;;;;4959028;28;20063;-61
2023/04/01 11:12:53;;;;;;;0.10;0.10;;;10.90;76.70;;;;;;4959519;28;20043;-61
2023/04/01 11:16:03;;;;;;;0.10;0.10;;;10.90;77.30;;;;;;4957285;28;20054;-61
2023/04/01 11:18:35;;;;;;;0.30;0.10;;;10.90;77.30;;;;;;4958297;28;20035;-62
2023/04/01 11:21:15;;;;;;;0.43;0.30;;;10.80;77.00;;;;;;4936124;28;20042;-62
2023/04/01 11:23:53;;;;;;;0.60;0.30;;;10.80;77.10;;;;;;4959113;28;20034;-62
2023/04/01 11:26:37;;;;;;;0.30;0.30;;;10.80;77.00;;;;;;4956779;28;20429;-62
2023/04/01 11:29:46;;;;;;;1.75;0.20;;;10.70;77.00;;;;;;4956540;28;20388;-61
2023/04/01 11:32:24;;;;;;;0.10;0.10;;;10.70;77.80;;;;;;4957464;28;20090;-61
2023/04/01 11:35:08;;;;;;;1.48;0.10;;;10.60;78.40;;;;;;4958831;28;20038;-62
2023/04/01 11:37:41;;;;;;;0.10;0.10;;;10.60;78.10;;;;;;4957134;28;20594;-62
2023/04/01 11:40:23;;;;;;;0.10;0.10;;;10.50;78.20;;;;;;4957743;28;20043;-61
2023/04/01 11:43:11;;;;;;;0.68;0.10;;;10.50;78.80;;;;;;4958330;28;20494;-62
2023/04/01 11:45:43;;;;;;;0.20;0.20;;;10.50;78.60;;;;;;4955689;28;20742;-62
2023/04/01 11:48:23;;;;;;;1.05;0.30;;;10.50;78.40;;;;;;4957039;28;20118;-62
2023/04/01 11:50:51;;;;;;;0.40;0.32;;;10.40;79.50;;;;;;4959316;28;20041;-62
2023/04/01 11:53:41;;;;;;;0.40;0.20;;;10.40;79.20;;;;;;4958606;28;20118;-62
2023/04/01 11:56:36;;;;;;;0.40;0.30;;;10.40;79.80;;;;;;4958277;28;20507;-62
2023/04/01 11:59:26;;;;;;;0.25;0.20;;;10.40;79.80;;;;;;4957852;28;20035;-62
2023/04/01 12:02:07;;;;;;;0.50;0.20;;;10.40;80.50;;;;;;4957791;28;20042;-62
2023/04/01 12:04:56;;;;;;;0.20;0.20;;;10.40;80.60;;;;;;4956523;28;20031;-62
2023/04/01 12:07:46;;;;;;;0.50;0.20;;;10.40;80.80;;;;;;4956843;28;20066;-63
2023/04/01 12:10:37;;;;;;;0.17;0.10;;;10.40;80.50;;;;;;4956981;28;20043;-62
2023/04/01 12:13:09;;;;;;;0.40;0.20;;;10.40;80.90;;;;;;4957477;28;20031;-62
2023/04/01 12:15:57;;;;;;;1.02;0.20;;;10.50;80.70;;;;;;4956035;28;20454;-62
2023/04/01 12:18:44;;;;;;;0.73;0.20;;;10.40;81.00;;;;;;4959410;28;20548;-61
2023/04/01 12:21:42;;;;;;;0.38;0.10;;;10.50;80.50;;;;;;4958675;28;20446;-62
2023/04/01 12:24:50;;;;;;;0.10;0.10;;;10.50;80.50;;;;;;4934497;28;20058;-62
2023/04/01 12:27:51;;;;;;;0.10;0.10;;;10.50;80.30;;;;;;4956891;28;20039;-62
2023/04/01 12:30:56;;;;;;;1.55;0.10;;;10.50;79.90;;;;;;4957617;28;20704;-62
2023/04/01 12:34:03;;;;;;;0.30;0.10;;;10.60;79.70;;;;;;4956765;28;20039;-62
2023/04/01 12:36:50;;;;;;;0.40;0.20;;;10.60;79.30;;;;;;4914869;28;20051;-62
2023/04/01 12:39:35;;;;;;;2.13;1.80;;;10.60;79.40;;;;;;4955888;28;20123;-62
2023/04/01 12:42:29;;;;;;;0.30;0.30;;;10.70;79.60;;;;;;4956842;28;20071;-62
2023/04/01 12:45:05;;;;;;;0.40;0.20;;;10.70;79.70;;;;;;4956841;28;20410;-62
2023/04/01 12:47:51;;;;;;;0.35;0.10;;;10.70;79.20;;;;;;4956272;28;20039;-62
2023/04/01 12:50:32;;;;;;;0.20;0.10;;;10.70;79.30;;;;;;4955273;28;20042;-62
2023/04/01 12:53:06;;;;;;;0.52;0.20;;;10.80;79.30;;;;;;4956629;28;20038;-62
2023/04/01 12:55:44;;;;;;;0.57;0.07;;;10.80;79.70;;;;;;4957901;28;20402;-62
2023/04/01 12:58:34;;;;;;;0.65;0.10;;;10.90;78.50;;;;;;4957428;28;20282;-62
2023/04/01 13:01:33;;;;;;;0.35;0.30;;;10.90;79.00;;;;;;4957244;28;20044;-62
2023/04/01 13:04:04;;;;;;;0.10;0.10;;;11.00;78.70;;;;;;4958862;28;20069;-61
2023/04/01 13:06:30;;;;;;;0.68;0.22;;;11.00;78.70;;;;;;4957549;28;20035;-62
2023/04/01 13:09:02;;;;;;;0.20;0.10;;;11.00;79.10;;;;;;4958288;28;20049;-62
2023/04/01 13:11:46;;;;;;;0.10;0.10;;;11.10;78.70;;;;;;4956442;28;20047;-62
2023/04/01 13:14:15;;;;;;;0.85;0.20;;;11.10;78.50;;;;;;4957551;28;20046;-62
2023/04/01 13:16:54;;;;;;;0.63;0.28;;;11.20;78.10;;;;;;4957048;28;20118;-61
2023/04/01 13:19:32;;;;;;;0.20;0.10;;;11.20;77.70;;;;;;4956422;28;20054;-62
2023/04/01 13:22:26;;;;;;;0.20;0.20;;;11.30;77.50;;;;;;4958634;28;20739;-62
2023/04/01 13:24:58;;;;;;;1.45;0.30;;;11.30;77.20;;;;;;4961627;28;20039;-62
2023/04/01 13:27:38;;;;;;;0.20;0.10;;;11.30;76.80;;;;;;4961687;28;20562;-62
2023/04/01 13:30:22;;;;;;;0.30;0.10;;;11.30;77.10;;;;;;4960053;28;20059;-62
2023/04/01 13:33:07;;;;;;;0.10;0.10;;;11.30;77.10;;;;;;4960612;28;20043;-62
2023/04/01 13:35:48;;;;;;;0.00;0.00;;;11.40;77.20;;;;;;4962030;28;20453;-62
2023/04/01 13:38:31;;;;;;;0.47;0.10;;;11.40;77.40;;;;;;4961774;28;20038;-61